Benvolgut visitant, si us plau, ingressa Recuperar contrasenya
AVAMET paisatges
Union Alcoyana

Rafal

Dades diàries. Acumulats / Últims 30 dies disponibles

Data Temperatura (°C) Humitat rel. (%) Pressió rel. (hPa) Vent (km/h) Precipitació
Mínima Mitjana Màxima Amplitud
tèrmica
Mínima Mitjana Màxima Mínima Mitjana Màxima Predom. Mitjana Ràfega
màxima
Total
(mm)
Índex-n
Mínima Mitjana Màxima Mínima Mitjana Màxima n
0 a 1
P0 max
mm 5'
Dades mensuals acumulades fins l'últim dia disponible
05/2022 11,8 14,1 17,3 19,8 17,2 26,4 30,9 19,1 32 69 91 1.011 1.020 1.026   5,1 25,7 20,9
Dades anuals acumulades fins l'últim dia disponible
2022 2,5 9,9 19,5 14,2 10,9 19,6 30,9 28,4 11 71 95 1.003 1.023 1.037   6,5 56,3 233,1
Últims 30 dies disponibles
17-05-2022 17,3     23,4     30,9 13,6 45 69 87 1.019 1.021 1.022 W 4,2 17,7 0,0
16-05-2022 16,6     23,0     30,3 13,7 43 71 89 1.019 1.020 1.022 E 4,2 19,3 0,0
15-05-2022 15,4     21,7     29,0 13,6 39 64 84 1.017 1.018 1.020 S 4,7 16,1 0,0
14-05-2022 14,9     21,6     29,0 14,1 32 64 89 1.019 1.021 1.023 SSE 4,2 17,7 0,0
13-05-2022 15,6     20,9     27,2 11,6 50 73 90 1.022 1.023 1.024 SW 5,8 17,7 0,0
12-05-2022 12,9     19,4     26,3 13,4 47 72 89 1.022 1.023 1.024 NW 5,7 19,3 0,0
11-05-2022 14,4     21,2     27,3 12,9 37 61 84 1.022 1.023 1.026 W 4,7 17,7 0,0
10-05-2022 12,9     19,7     26,7 13,8 40 62 82 1.024 1.025 1.026 SW 4,5 17,7 0,0
09-05-2022 13,1     19,6     26,8 13,7 35 64 88 1.023 1.024 1.026 SE 4,7 22,5 0,0
08-05-2022 12,2     19,6     27,8 15,6 33 63 84 1.019 1.021 1.023 W 5,3 19,3 0,0
07-05-2022 12,9     19,0     26,9 14,0 38 65 86 1.021 1.022 1.023 SW 4,6 20,9 0,0
06-05-2022 11,8     18,0     25,9 14,1 52 72 90 1.021 1.023 1.025 SSW 5,5 24,1 0,0
05-05-2022 13,7     18,3     23,4 9,7 50 66 90 1.019 1.021 1.025 N 6,2 17,7 1,8
04-05-2022 13,9     15,0     17,2 3,3 84 88 91 1.015 1.017 1.019 NNE 4,3 17,7 18,8 0,58 4,60
03-05-2022 12,8     17,6     23,9 11,1 50 75 88 1.011 1.013 1.016 SE 5,8 25,7 0,0
02-05-2022 15,2     18,2     23,3 8,1 56 78 87 1.012 1.014 1.017 S 6,5 25,7 0,0
01-05-2022 13,9     19,7     27,3 13,4 46 66 78 1.017 1.019 1.022 SW 5,7 20,9 0,3
30-04-2022 12,1     19,3     28,0 15,9 33 61 83 1.020 1.023 1.026 WSW 7,9 19,3 0,0
29-04-2022 11,9     17,2     23,3 11,4 49 71 87 1.023 1.025 1.026 SW 7,7 27,4 0,0
28-04-2022 12,2     14,4     16,1 3,9 73 86 93 1.020 1.022 1.024 NW 2,8 11,3 3,3 0,32 0,70
27-04-2022 13,2     15,1     18,6 5,4 53 78 90 1.016 1.019 1.021 W 3,7 14,5 1,3
26-04-2022 10,4     16,0     21,9 11,5 43 69 87 1.015 1.016 1.018 WSW 4,5 27,4 0,0
25-04-2022 12,4     19,1     23,8 11,4 41 60 81 1.014 1.015 1.016 SW 5,3 17,7 0,0
22-04-2022 11,7     15,0     19,3 7,6 51 64 73 1.005 1.007 1.009 WSW 5,4 17,7 0,0
21-04-2022 12,9     16,9     22,4 9,5 37 52 66 1.006 1.008 1.009 NW 12,4 38,6 0,5
20-04-2022 9,0     13,5     16,3 7,3 60 81 92 1.003 1.006 1.009 E 8,2 30,6 16,5
19-04-2022 13,9     19,0     22,8 8,9 61 75 92 1.008 1.011 1.014 SSE 6,5 24,1 1,3
13-04-2022 12,2     15,5     20,0 7,8 60 78 90 1.011 1.012 1.013 WNW 6,9 22,5 0,0
12-04-2022 13,4     15,5     17,6 4,2 73 83 89 1.010 1.013 1.015 SW 3,7 30,6 3,1
11-04-2022 10,8     15,3     20,1 9,3 65 78 90 1.011 1.014 1.018 SW 7,9 32,2 0,0
Últims 13 mesos disponibles
04/2022 5,4 11,3 16,1 15,5 10,9 20,1 28,0 22,6 38 67 86 1.006 1.016 1.025 NW 7,4 38,6 59,5
03/2022 6,9 10,9 18,4 14,1 13,6 18,3 22,6 15,7 53 78 91 1.006 1.019 1.028 ESE 7,9 56,3 131,8
02/2022 5,4 8,6 12,1 13,4 15,8 19,6 25,3 19,9 41 69 85 1.020 1.027 1.034 WSW 5,8 41,8 6,5
01/2022 2,5 6,3 19,5 10,7 11,5 16,6 24,7 22,2 35 73 89 1.017 1.029 1.035 WSW 5,7 32,2 14,4
12/2021 6,3 10,5 17,3 14,3 13,3 19,0 25,3 19,0 46 68 87 1.012 1.023 1.030 W 7,3 43,5 1,1
11/2021 7,5 10,9 19,1 14,9 14,6 19,9 27,2 19,7 49 67 88 1.010 1.018 1.028 W 6,6 46,7 30,9
10/2021 13,3 16,3 20,1 20,5 21,2 26,2 31,1 17,8 54 75 89 1.013 1.021 1.028 WSW 4,7 40,2 50,4
09/2021 16,9 20,8 24,0 25,4 26,8 31,4 35,4 18,5 53 71 82 1.014 1.018 1.025 SW 5,3 32,2 9,9
08/2021 20,7 23,2 25,8 27,7 26,1 33,9 42,7 22,0 56 70 79 1.008 1.016 1.021 ESE 5,8 29,0 0,6
07/2021 19,3 21,7 24,2 27,2 29,6 33,8 43,6 24,3 49 68 79 1.010 1.016 1.023 ESE 5,7 43,5 1,8
06/2021 15,7 19,3 23,8 24,2 25,5 30,0 34,8 19,1 43 68 85 1.012 1.018 1.023 ESE 6,4 40,2 13,9
05/2021 11,9 15,5 18,7 20,7 20,1 26,7 36,8 24,9 42 66 85 1.010 1.018 1.025 ESE 6,9 38,6 53,7
04/2021 7,7 12,3 15,1 16,1 14,3 21,5 29,3 21,6 57 75 88 1.008 1.017 1.026 E 6,0 32,2 63,2
Tots els anys disponibles
2021 1,7 14,9 25,8 19,4 9,1 25,0 43,6 41,9 41 69 91 1.005 1.019 1.037 W 6,3 51,5 310,9
Temperatura (°C)
Humitat relativa (%)
Pressió (hPa)
Precipitació (mm)
Nota sobre les dades: s'avisa a l'usuari de la provisionalitat i no oficialitat d'aquestes dades
Logo AVAMET blanc
Web allotjada a Sollutia
Llicència de Creative CommonsLa web d'AVAMET i els seus continguts estan subjectes a una llicència de
Reconeixement - No Comercial - Compartir igual
Avís legal - Política de privacitat - Política de cookies
NOVES ESTACIONS: Sant Mateu - IES Maestrat (Soci)  / el Palomar (Ajuntament/Soci) / Atzeneta del Maestrat - Pla de Meanes (Ajuntament/Soci) / Onda - Sant Gil (Soci) / Onda - Ràtils CR Cota 220 (Soci) / la Vila Joiosa (Ajuntament/Soci) / Miramar - Platja (Ajuntament/Soci) / Massanassa - IES Massanassa (Soci) / Culla - Pla de les Vinyes (Ajuntament/Soci) / Oliva - Col·legi - El Rebollet / Villena - Hondo de Carboneras (Soci) / Ontinyent - les Aigües (Soci) / Castelló de la Plana - IES Bovalar (Soci) /  Villena - las Quebradas (Soci) / la Salzadella (Ajuntament/Soci)  - - -